createdAt,value
2022-08-26T00:01:39.031Z,1.70
2022-08-26T00:04:13.183Z,1.67
2022-08-26T00:06:46.094Z,1.90
2022-08-26T00:09:19.043Z,1.17
2022-08-26T00:11:51.947Z,1.17
2022-08-26T00:14:28.436Z,2.53
2022-08-26T00:17:03.931Z,1.52
2022-08-26T00:19:38.189Z,1.58
2022-08-26T00:22:10.654Z,1.70
2022-08-26T00:24:47.912Z,1.98
2022-08-26T00:27:20.770Z,1.58
2022-08-26T00:29:53.286Z,1.83
2022-08-26T00:32:25.978Z,1.80
2022-08-26T00:34:59.266Z,1.17
2022-08-26T00:37:33.128Z,1.30
2022-08-26T00:40:07.710Z,2.40
2022-08-26T00:42:46.140Z,2.47
2022-08-26T00:45:18.702Z,2.00
2022-08-26T00:47:55.977Z,1.40
2022-08-26T00:50:31.984Z,2.00
2022-08-26T00:53:32.440Z,2.63
2022-08-26T00:56:09.496Z,1.20
2022-08-26T00:58:47.387Z,1.50
2022-08-26T01:01:23.145Z,1.73
2022-08-26T01:03:56.266Z,1.80
2022-08-26T01:06:30.611Z,1.90
2022-08-26T01:09:03.676Z,1.92
2022-08-26T01:11:36.294Z,2.00
2022-08-26T01:14:11.073Z,1.58
2022-08-26T01:16:44.285Z,1.45
2022-08-26T01:19:23.525Z,1.35
2022-08-26T01:21:59.596Z,1.20
2022-08-26T01:24:32.705Z,1.30
2022-08-26T01:27:12.273Z,1.45
2022-08-26T01:32:21.899Z,1.15
2022-08-26T01:34:56.531Z,2.05
2022-08-26T01:37:34.147Z,0.45
2022-08-26T01:40:13.705Z,2.08
2022-08-26T01:45:24.385Z,1.23
2022-08-26T01:47:59.079Z,1.02
2022-08-26T01:50:35.837Z,1.63
2022-08-26T01:53:12.506Z,1.20
2022-08-26T01:55:49.089Z,1.42
2022-08-26T01:58:26.094Z,1.23
2022-08-26T02:00:59.559Z,0.90
2022-08-26T02:03:33.481Z,1.00
2022-08-26T02:06:11.252Z,1.55
2022-08-26T02:08:48.054Z,1.52
2022-08-26T02:11:23.330Z,1.50
2022-08-26T02:14:01.735Z,1.42
2022-08-26T02:16:39.322Z,1.25
2022-08-26T02:19:17.610Z,1.15
2022-08-26T02:21:52.485Z,2.55
2022-08-26T02:24:28.382Z,0.90
2022-08-26T02:27:01.447Z,1.52
2022-08-26T02:29:37.687Z,1.30
2022-08-26T02:32:13.679Z,1.40
2022-08-26T02:34:50.895Z,1.40
2022-08-26T02:37:23.302Z,1.73
2022-08-26T02:39:55.923Z,1.13
2022-08-26T02:42:30.166Z,1.40
2022-08-26T02:45:03.577Z,1.50
2022-08-26T02:47:37.299Z,1.42
2022-08-26T02:50:10.274Z,1.38
2022-08-26T02:52:42.739Z,1.30
2022-08-26T02:55:16.650Z,1.40
2022-08-26T02:57:49.706Z,1.55
2022-08-26T03:00:22.410Z,0.80
2022-08-26T03:02:57.060Z,1.98
2022-08-26T03:05:29.459Z,1.05
2022-08-26T03:08:02.130Z,1.65
2022-08-26T03:10:34.492Z,1.60
2022-08-26T03:13:08.178Z,1.23
2022-08-26T03:15:41.059Z,1.38
2022-08-26T03:18:13.494Z,1.77
2022-08-26T03:20:45.843Z,1.58
2022-08-26T03:23:18.611Z,1.83
2022-08-26T03:25:52.433Z,1.80
2022-08-26T03:28:27.249Z,1.52
2022-08-26T03:30:59.572Z,1.45
2022-08-26T03:33:32.745Z,1.80
2022-08-26T03:36:07.092Z,1.30
2022-08-26T03:38:39.536Z,1.40
2022-08-26T03:41:11.969Z,1.05
2022-08-26T03:43:47.559Z,2.00
2022-08-26T03:46:20.334Z,1.52
2022-08-26T03:48:53.512Z,1.85
2022-08-26T03:51:26.401Z,1.50
2022-08-26T03:54:00.031Z,1.00
2022-08-26T03:56:32.871Z,1.75
2022-08-26T03:59:07.645Z,2.03
2022-08-26T04:01:40.280Z,1.27
2022-08-26T04:04:15.654Z,1.83
2022-08-26T04:06:48.193Z,1.92
2022-08-26T04:09:20.950Z,1.65
2022-08-26T04:11:54.414Z,1.13
2022-08-26T04:14:28.046Z,1.45
2022-08-26T04:17:01.024Z,1.65
2022-08-26T04:19:33.470Z,1.77
2022-08-26T04:22:06.162Z,1.80
2022-08-26T04:24:39.183Z,1.88
2022-08-26T04:27:11.937Z,2.22
2022-08-26T04:29:45.907Z,1.88
2022-08-26T04:32:20.480Z,1.73
2022-08-26T04:34:52.939Z,1.95
2022-08-26T04:37:25.346Z,1.15
2022-08-26T04:39:58.127Z,1.73
2022-08-26T04:42:32.610Z,1.33
2022-08-26T04:45:10.208Z,2.00
2022-08-26T04:47:43.047Z,1.25
2022-08-26T04:50:18.939Z,1.67
2022-08-26T04:52:56.022Z,2.03
2022-08-26T04:55:38.443Z,1.48
2022-08-26T04:58:14.919Z,1.50
2022-08-26T05:00:49.305Z,1.30
2022-08-26T05:03:22.931Z,1.77
2022-08-26T05:05:55.471Z,1.95
2022-08-26T05:08:27.859Z,1.70
2022-08-26T05:11:04.418Z,2.30
2022-08-26T05:13:38.470Z,1.50
2022-08-26T05:16:13.379Z,1.35
2022-08-26T05:18:46.672Z,1.92
2022-08-26T05:21:21.491Z,2.15
2022-08-26T05:23:54.359Z,3.05
2022-08-26T05:26:29.905Z,1.80
2022-08-26T05:29:02.501Z,2.05
2022-08-26T05:31:36.770Z,1.60
2022-08-26T05:34:09.478Z,1.38
2022-08-26T05:36:41.944Z,1.95
2022-08-26T05:39:14.342Z,1.60
2022-08-26T05:41:46.908Z,1.52
2022-08-26T05:44:20.347Z,1.23
2022-08-26T05:46:55.495Z,1.63
2022-08-26T05:49:27.903Z,1.40
2022-08-26T05:52:00.374Z,2.15
2022-08-26T05:54:34.122Z,1.88
2022-08-26T05:57:06.566Z,1.90
2022-08-26T05:59:39.031Z,1.42
2022-08-26T06:02:12.158Z,1.25
2022-08-26T06:04:46.094Z,1.55
2022-08-26T06:07:38.506Z,1.67
2022-08-26T06:10:31.571Z,0.98
2022-08-26T06:13:11.580Z,1.98
2022-08-26T06:15:46.266Z,1.75
2022-08-26T06:18:22.491Z,1.42
2022-08-26T06:20:57.954Z,1.75
2022-08-26T06:23:48.643Z,2.05
2022-08-26T06:26:21.276Z,2.22
2022-08-26T06:28:54.815Z,1.65
2022-08-26T06:31:27.579Z,1.65
2022-08-26T06:34:07.272Z,1.52
2022-08-26T06:36:44.397Z,1.27
2022-08-26T06:39:17.906Z,1.80
2022-08-26T06:41:50.759Z,1.02
2022-08-26T06:44:23.251Z,1.73
2022-08-26T06:46:55.638Z,3.47
2022-08-26T06:49:29.003Z,1.90
2022-08-26T06:52:02.456Z,1.33
2022-08-26T06:54:36.342Z,1.40
2022-08-26T06:57:12.367Z,2.08
2022-08-26T06:59:47.379Z,1.98
2022-08-26T07:02:23.554Z,1.35
2022-08-26T07:05:01.549Z,1.48
2022-08-26T07:07:34.015Z,1.40
2022-08-26T07:10:08.386Z,2.03
2022-08-26T07:12:40.914Z,1.42
2022-08-26T07:15:13.761Z,2.22
2022-08-26T07:17:47.459Z,1.75
2022-08-26T07:20:20.626Z,1.50
2022-08-26T07:22:53.035Z,1.48
2022-08-26T07:25:25.504Z,1.58
2022-08-26T07:27:57.903Z,1.33
2022-08-26T07:30:30.487Z,1.85
2022-08-26T07:33:03.831Z,1.65
2022-08-26T07:35:37.799Z,2.17
2022-08-26T07:38:10.346Z,2.17
2022-08-26T07:40:42.839Z,1.80
2022-08-26T07:43:15.303Z,1.20
2022-08-26T07:45:47.849Z,1.45
2022-08-26T07:48:21.522Z,1.70
2022-08-26T07:50:54.799Z,2.58
2022-08-26T07:53:27.757Z,1.83
2022-08-26T07:56:01.392Z,1.73
2022-08-26T07:58:33.790Z,0.93
2022-08-26T08:01:07.846Z,1.95
2022-08-26T08:03:40.272Z,1.27
2022-08-26T08:06:13.423Z,1.35
2022-08-26T08:08:45.911Z,1.23
2022-08-26T08:11:20.535Z,1.77
2022-08-26T08:13:56.463Z,1.38
2022-08-26T08:16:32.156Z,1.65
2022-08-26T08:19:05.675Z,2.25
2022-08-26T08:21:39.759Z,1.63
2022-08-26T08:24:12.308Z,2.50
2022-08-26T08:26:45.668Z,1.40
2022-08-26T08:29:18.159Z,1.45
2022-08-26T08:31:56.940Z,1.38
2022-08-26T08:34:30.890Z,1.17
2022-08-26T08:37:08.703Z,1.25
2022-08-26T08:39:43.023Z,1.70
2022-08-26T08:42:37.952Z,1.70
2022-08-26T08:45:14.699Z,1.35
2022-08-26T08:47:54.015Z,1.45
2022-08-26T08:50:30.506Z,1.65
2022-08-26T08:53:12.910Z,1.70
2022-08-26T08:56:06.975Z,1.40
2022-08-26T08:58:51.151Z,2.97
2022-08-26T09:01:41.574Z,1.67
2022-08-26T09:04:42.299Z,1.40
2022-08-26T09:07:18.428Z,1.45
2022-08-26T09:09:56.526Z,1.40
2022-08-26T09:12:33.355Z,0.93
2022-08-26T09:15:16.302Z,1.20
2022-08-26T09:17:55.623Z,1.30
2022-08-26T09:20:40.788Z,1.70
2022-08-26T09:23:13.670Z,1.88
2022-08-26T09:25:49.231Z,1.73
2022-08-26T09:28:24.431Z,1.48
2022-08-26T09:31:11.517Z,2.25
2022-08-26T09:33:44.232Z,1.60
2022-08-26T09:36:22.286Z,2.25
2022-08-26T09:38:54.746Z,1.58
2022-08-26T09:41:31.093Z,1.73
2022-08-26T09:44:14.570Z,2.13
2022-08-26T09:46:54.884Z,1.80
2022-08-26T09:49:35.725Z,2.20
2022-08-26T09:52:17.432Z,2.55
2022-08-26T09:55:01.858Z,2.30
2022-08-26T09:57:45.049Z,2.25
2022-08-26T10:00:29.007Z,2.55
2022-08-26T10:03:04.141Z,2.50
2022-08-26T10:05:41.577Z,3.00
2022-08-26T10:08:23.831Z,2.63
2022-08-26T10:10:58.701Z,2.40
2022-08-26T10:13:35.971Z,2.60
2022-08-26T10:16:14.736Z,2.63
2022-08-26T10:18:59.433Z,3.05
2022-08-26T10:21:36.866Z,4.38
2022-08-26T10:24:15.759Z,2.90
2022-08-26T10:26:59.246Z,2.40
2022-08-26T10:29:39.451Z,2.78
2022-08-26T10:32:19.977Z,2.17
2022-08-26T10:34:52.815Z,2.85
2022-08-26T10:37:33.147Z,2.38
2022-08-26T10:40:12.210Z,2.15
2022-08-26T10:42:49.928Z,2.63
2022-08-26T10:45:26.876Z,2.67
2022-08-26T10:48:05.060Z,2.58
2022-08-26T10:50:41.027Z,2.40
2022-08-26T10:53:25.369Z,2.75
2022-08-26T10:56:05.335Z,2.50
2022-08-26T10:59:00.749Z,2.80
2022-08-26T11:01:42.404Z,2.70
2022-08-26T11:04:34.921Z,2.65
2022-08-26T11:07:36.874Z,2.25
2022-08-26T11:10:26.287Z,2.38
2022-08-26T11:13:00.848Z,2.85
2022-08-26T11:16:09.081Z,2.20
2022-08-26T11:18:45.521Z,2.83
2022-08-26T11:22:04.409Z,2.08
2022-08-26T11:25:01.064Z,2.00
2022-08-26T11:27:54.098Z,2.05
2022-08-26T11:30:49.129Z,2.63
2022-08-26T11:33:47.987Z,2.40
2022-08-26T11:36:57.492Z,2.38
2022-08-26T11:39:36.638Z,2.30
2022-08-26T11:42:31.803Z,3.00
2022-08-26T11:45:17.543Z,3.03
2022-08-26T11:47:49.986Z,3.05
2022-08-26T11:50:25.520Z,2.92
2022-08-26T11:53:03.702Z,2.83
2022-08-26T11:55:41.774Z,2.83
2022-08-26T11:58:15.475Z,2.45
2022-08-26T12:00:51.626Z,2.58
2022-08-26T12:03:30.951Z,2.25
2022-08-26T12:06:14.247Z,2.70
2022-08-26T12:08:47.231Z,2.33
2022-08-26T12:11:24.167Z,2.17
2022-08-26T12:13:58.724Z,2.95
2022-08-26T12:16:36.122Z,3.13
2022-08-26T12:19:21.585Z,1.85
2022-08-26T12:22:01.968Z,2.50
2022-08-26T12:24:35.542Z,1.65
2022-08-26T12:27:16.112Z,1.70
2022-08-26T12:30:02.380Z,2.78
2022-08-26T12:32:38.363Z,1.88
2022-08-26T12:35:30.615Z,1.35
2022-08-26T12:38:07.820Z,2.05
2022-08-26T12:40:43.204Z,1.45
2022-08-26T12:43:37.671Z,2.03
2022-08-26T12:46:12.459Z,1.52
2022-08-26T12:48:48.785Z,1.98
2022-08-26T12:51:26.491Z,1.83
2022-08-26T12:54:01.583Z,1.63
2022-08-26T12:56:38.035Z,1.80
2022-08-26T12:59:22.459Z,1.92
2022-08-26T13:01:55.055Z,1.80
2022-08-26T13:04:37.490Z,2.60
2022-08-26T13:07:19.842Z,1.60
2022-08-26T13:09:54.494Z,3.40
2022-08-26T13:12:30.183Z,2.03
2022-08-26T13:15:04.572Z,1.77
2022-08-26T13:17:38.504Z,4.65
2022-08-26T13:20:10.878Z,1.85
2022-08-26T13:22:43.315Z,1.65
2022-08-26T13:25:19.779Z,1.35
2022-08-26T13:27:52.365Z,1.45
2022-08-26T13:30:24.743Z,2.10
2022-08-26T13:32:59.987Z,1.55
2022-08-26T13:35:34.587Z,1.75
2022-08-26T13:38:13.902Z,2.08
2022-08-26T13:40:58.947Z,1.45
2022-08-26T13:43:31.934Z,1.42
2022-08-26T13:46:04.616Z,1.88
2022-08-26T13:48:37.539Z,1.23
2022-08-26T13:51:13.447Z,1.52
2022-08-26T13:53:45.915Z,1.85
2022-08-26T13:56:19.679Z,1.60
2022-08-26T13:58:53.033Z,1.50
2022-08-26T14:01:26.199Z,1.13
2022-08-26T14:03:58.902Z,1.30
2022-08-26T14:06:31.455Z,2.65
2022-08-26T14:09:04.267Z,1.70
2022-08-26T14:11:41.227Z,1.10
2022-08-26T14:14:27.156Z,1.30
2022-08-26T14:17:00.498Z,2.10
2022-08-26T14:19:33.207Z,1.33
2022-08-26T14:22:05.677Z,1.10
2022-08-26T14:24:38.047Z,1.27
2022-08-26T14:27:11.906Z,1.10
2022-08-26T14:29:44.326Z,1.30
2022-08-26T14:32:22.372Z,1.27
2022-08-26T14:34:55.707Z,1.95
2022-08-26T14:37:28.135Z,1.60
2022-08-26T14:40:00.687Z,1.25
2022-08-26T14:42:33.760Z,1.10
2022-08-26T14:45:10.674Z,1.50
2022-08-26T14:47:43.272Z,1.55
2022-08-26T14:50:17.796Z,1.52
2022-08-26T14:53:08.631Z,1.05
2022-08-26T14:55:42.033Z,1.48
2022-08-26T14:58:15.072Z,1.52
2022-08-26T15:00:47.541Z,1.15
2022-08-26T15:03:19.906Z,1.77
2022-08-26T15:05:52.313Z,1.40
2022-08-26T15:08:24.704Z,1.27
2022-08-26T15:10:57.098Z,1.90
2022-08-26T15:13:30.230Z,2.85
2022-08-26T15:16:03.373Z,1.58
2022-08-26T15:18:35.831Z,1.67
2022-08-26T15:21:08.326Z,1.25
2022-08-26T15:23:41.000Z,1.23
2022-08-26T15:26:22.365Z,1.40
2022-08-26T15:28:55.707Z,1.00
2022-08-26T15:31:30.783Z,1.33
2022-08-26T15:34:07.402Z,1.30
2022-08-26T15:36:41.913Z,1.13
2022-08-26T15:39:15.709Z,1.33
2022-08-26T15:41:48.275Z,1.75
2022-08-26T15:44:21.990Z,1.83
2022-08-26T15:46:58.372Z,1.45
2022-08-26T15:49:31.040Z,1.35
2022-08-26T15:52:05.390Z,1.27
2022-08-26T15:54:38.881Z,1.17
2022-08-26T15:57:12.321Z,1.58
2022-08-26T15:59:46.622Z,1.42
2022-08-26T16:02:19.042Z,1.30
2022-08-26T16:04:51.483Z,1.48
2022-08-26T16:07:23.862Z,0.98
2022-08-26T16:09:56.735Z,1.33
2022-08-26T16:12:29.074Z,1.20
2022-08-26T16:15:02.322Z,2.25
2022-08-26T16:17:34.738Z,1.25
2022-08-26T16:20:08.723Z,1.58
2022-08-26T16:22:41.171Z,2.17
2022-08-26T16:25:13.549Z,1.25
2022-08-26T16:27:45.991Z,1.20
2022-08-26T16:30:21.644Z,1.40
2022-08-26T16:32:54.928Z,1.45
2022-08-26T16:35:27.323Z,1.70
2022-08-26T16:37:59.715Z,1.13
2022-08-26T16:40:32.779Z,1.45
2022-08-26T16:43:05.398Z,1.90
2022-08-26T16:45:39.967Z,1.65
2022-08-26T16:48:14.871Z,1.80
2022-08-26T16:50:47.254Z,1.92
2022-08-26T16:53:19.610Z,2.78
2022-08-26T16:55:52.012Z,1.98
2022-08-26T16:58:24.369Z,2.20
2022-08-26T17:00:57.421Z,1.48
2022-08-26T17:03:29.820Z,2.20
2022-08-26T17:06:02.187Z,1.95
2022-08-26T17:08:36.032Z,4.35
2022-08-26T17:11:08.532Z,2.63
2022-08-26T17:13:41.227Z,1.83
2022-08-26T17:16:15.917Z,1.40
2022-08-26T17:18:48.423Z,1.25
2022-08-26T17:21:20.834Z,1.52
2022-08-26T17:23:54.107Z,1.52
2022-08-26T17:26:27.019Z,1.15
2022-08-26T17:28:59.672Z,1.27
2022-08-26T17:31:34.300Z,1.77
2022-08-26T17:34:06.758Z,1.67
2022-08-26T17:36:39.162Z,2.70
2022-08-26T17:39:11.555Z,2.33
2022-08-26T17:41:44.038Z,2.08
2022-08-26T17:44:16.694Z,1.40
2022-08-26T17:46:49.906Z,1.23
2022-08-26T17:49:22.395Z,1.20
2022-08-26T17:51:58.086Z,1.25
2022-08-26T17:54:31.690Z,2.05
2022-08-26T17:57:04.638Z,1.90
2022-08-26T17:59:43.064Z,1.27
2022-08-26T18:02:16.520Z,1.88
2022-08-26T18:04:49.388Z,1.73
2022-08-26T18:07:21.806Z,1.80
2022-08-26T18:09:54.271Z,1.48
2022-08-26T18:12:27.054Z,1.23
2022-08-26T18:15:01.891Z,1.85
2022-08-26T18:17:35.361Z,2.03
2022-08-26T18:20:10.486Z,1.50
2022-08-26T18:22:44.147Z,2.28
2022-08-26T18:25:18.270Z,1.80
2022-08-26T18:27:50.715Z,1.35
2022-08-26T18:30:23.348Z,1.35
2022-08-26T18:32:56.426Z,1.83
2022-08-26T18:35:29.666Z,1.73
2022-08-26T18:38:11.398Z,1.42
2022-08-26T18:40:45.293Z,1.45
2022-08-26T18:43:17.706Z,1.10
2022-08-26T18:46:00.179Z,1.08
2022-08-26T18:48:33.683Z,2.30
2022-08-26T18:51:06.843Z,1.10
2022-08-26T18:53:42.075Z,1.02
2022-08-26T18:56:16.702Z,0.90
2022-08-26T18:58:51.035Z,1.10
2022-08-26T19:01:27.419Z,1.00
2022-08-26T19:04:02.340Z,1.45
2022-08-26T19:06:35.622Z,1.20
2022-08-26T19:09:10.673Z,0.80
2022-08-26T19:11:45.807Z,1.35
2022-08-26T19:14:18.906Z,1.25
2022-08-26T19:16:52.633Z,1.30
2022-08-26T19:19:25.732Z,0.85
2022-08-26T19:21:58.200Z,1.60
2022-08-26T19:24:30.701Z,1.58
2022-08-26T19:27:03.187Z,1.02
2022-08-26T19:29:35.796Z,1.13
2022-08-26T19:32:08.488Z,1.45
2022-08-26T19:34:41.715Z,1.17
2022-08-26T19:37:14.226Z,0.90
2022-08-26T19:39:46.912Z,1.42
2022-08-26T19:42:19.352Z,1.73
2022-08-26T19:45:24.473Z,1.98
2022-08-26T19:47:58.100Z,1.25
2022-08-26T19:50:33.351Z,0.95
2022-08-26T19:53:05.769Z,1.55
2022-08-26T19:55:38.513Z,1.15
2022-08-26T19:58:11.619Z,1.30
2022-08-26T20:00:44.127Z,1.80
2022-08-26T20:03:16.551Z,0.85
2022-08-26T20:05:49.615Z,1.75
2022-08-26T20:08:22.763Z,2.22
2022-08-26T20:10:55.281Z,3.33
2022-08-26T20:13:28.027Z,5.70
2022-08-26T20:16:00.509Z,5.15
2022-08-26T20:18:50.938Z,5.00
2022-08-26T20:21:27.070Z,5.90
2022-08-26T20:24:02.658Z,5.38
2022-08-26T20:26:38.037Z,4.82
2022-08-26T20:29:12.470Z,2.17
2022-08-26T20:31:45.294Z,1.42
2022-08-26T20:34:18.819Z,1.65
2022-08-26T20:36:52.242Z,1.08
2022-08-26T20:39:28.101Z,1.08
2022-08-26T20:42:00.518Z,1.27
2022-08-26T20:44:33.015Z,0.90
2022-08-26T20:47:05.638Z,1.25
2022-08-26T20:49:38.171Z,1.00
2022-08-26T20:52:11.698Z,1.30
2022-08-26T20:54:44.114Z,1.10
2022-08-26T20:57:16.781Z,1.33
2022-08-26T20:59:49.600Z,0.85
2022-08-26T21:02:22.002Z,1.30
2022-08-26T21:04:54.482Z,1.00
2022-08-26T21:07:27.919Z,1.05
2022-08-26T21:10:00.751Z,0.90
2022-08-26T21:12:33.159Z,0.90
2022-08-26T21:15:06.979Z,0.95
2022-08-26T21:17:39.360Z,0.70
2022-08-26T21:20:11.778Z,0.68
2022-08-26T21:22:44.839Z,1.05
2022-08-26T21:25:17.542Z,1.10
2022-08-26T21:27:49.894Z,0.82
2022-08-26T21:30:22.497Z,1.10
2022-08-26T21:32:54.822Z,1.00
2022-08-26T21:35:27.386Z,1.45
2022-08-26T21:38:00.495Z,1.38
2022-08-26T21:40:32.957Z,1.10
2022-08-26T21:43:05.322Z,1.10
2022-08-26T21:45:39.533Z,0.98
2022-08-26T21:48:11.915Z,0.80
2022-08-26T21:50:44.487Z,1.58
2022-08-26T21:53:17.598Z,1.00
2022-08-26T21:55:50.006Z,1.45
2022-08-26T21:58:22.631Z,1.17
2022-08-26T22:00:55.097Z,0.82
2022-08-26T22:03:27.908Z,0.82
2022-08-26T22:06:04.102Z,1.10
2022-08-26T22:08:39.187Z,0.80
2022-08-26T22:11:12.550Z,1.38
2022-08-26T22:13:45.853Z,0.90
2022-08-26T22:16:19.256Z,1.08
2022-08-26T22:18:52.802Z,0.90
2022-08-26T22:21:27.302Z,1.80
2022-08-26T22:24:00.329Z,1.05
2022-08-26T22:26:33.259Z,1.10
2022-08-26T22:29:06.715Z,1.20
2022-08-26T22:31:39.431Z,1.15
2022-08-26T22:34:16.526Z,1.10
2022-08-26T22:36:50.107Z,1.10
2022-08-26T22:39:25.354Z,1.00
2022-08-26T22:41:57.934Z,1.30
2022-08-26T22:44:31.183Z,1.00
2022-08-26T22:47:03.642Z,1.15
2022-08-26T22:49:36.035Z,1.13
2022-08-26T22:52:08.611Z,1.23
2022-08-26T22:54:41.664Z,1.95
2022-08-26T22:57:14.083Z,0.90
2022-08-26T22:59:46.693Z,1.15
2022-08-26T23:02:19.120Z,1.08
2022-08-26T23:04:51.654Z,1.10
2022-08-26T23:07:24.057Z,0.90
2022-08-26T23:09:57.139Z,1.33
2022-08-26T23:12:30.741Z,1.20
2022-08-26T23:15:04.010Z,0.93
2022-08-26T23:17:37.566Z,0.95
2022-08-26T23:20:12.058Z,1.25
2022-08-26T23:22:44.506Z,1.65
2022-08-26T23:25:17.644Z,1.00
2022-08-26T23:27:50.530Z,1.10
2022-08-26T23:30:25.879Z,1.30
2022-08-26T23:32:58.558Z,1.30
2022-08-26T23:35:30.680Z,1.00
2022-08-26T23:38:03.331Z,1.00
2022-08-26T23:40:37.901Z,1.05
2022-08-26T23:43:11.087Z,1.27
2022-08-26T23:45:43.540Z,1.48
2022-08-26T23:48:15.958Z,1.35
2022-08-26T23:51:09.757Z,0.88
2022-08-26T23:53:42.641Z,1.42
2022-08-26T23:56:18.642Z,1.02
2022-08-26T23:58:51.112Z,0.80
